ENAT

Details ICAO ENAT (ALF)
Name ALTA
Region Norway
Timezone Europe/Oslo (UTC+1.0)
Plans Departing 88
Arriving 103
Stats Elevation 9 ft / 3 m (AMSL)
Location 69.977351° 23.365433°
Runways 1
Magnetic Variation 11.447° E
Sunrise Unknown / Unknown
Sunset Unknown / Unknown
Advertisement - Login to hide

Runways

ID Width Length Bearing (true) Bearing (mag) Surface Threshold Offset Overrun Length
11 131 ft / 40 m 7,140 ft / 2,176 m 121.18° 109.73° Asphalt 674 ft / 205 m 0 ft / 0 m
29 131 ft / 40 m 7,140 ft / 2,176 m 301.22° 289.77° Asphalt 418 ft / 127 m 0 ft / 0 m

Approach Navaids

Runway Type Ident Frequency Range Bearing (true) Bearing (mag) Slope Elevation
11 Localiser AT 108.90 MHz 18 nm / 33 km 121.22° 109.78° - 9 ft / 3 m (AMSL)
11 Glidescope AT 108.90 MHz 10 nm / 19 km 121.20° 109.75° 3.70° 10 ft / 3 m (AMSL)

Map

Weather


0- 5 10 15 20 25 30 35+ Temperature / ° C

Clouds and Precipitation
Forecast for 2017-12-18 12:00 UTC. Updated 2 hours ago

Ground ~20,000 ft ~40,000 ft Winds

METAR

ENAT 181050Z 19003KT 140V240 9999 SCT039 M07/M11 Q1005 RMK WIND 700FT 16007KT

TAF

Not found

Frequencies

Recorded 118.17 MHz ATIS
Tower 118.10 MHz TWR
Tower 120.40 MHz TWR
Warning: Do not use this data for real-world aviation or navigation. No guarantee of current accuracy is given.